Time;durP1;ratioP1;P1;durP2;ratioP2;P2;SDS_P1;SDS_P2;PMS_P1;PMS_P2;Temp;Humidity;BMP_temperature;BMP_pressure;BME280_temperature;BME280_humidity;BME280_pressure;Samples;Min_cycle;Max_cycle;Signal;HPM_P1;HPM_P2
2023/07/09 00:02:15;;;;;;;1.37;1.27;;;22.40;94.00;;;;;;5075211;28;20202;-79
2023/07/09 00:04:42;;;;;;;1.33;1.23;;;22.40;94.30;;;;;;5075182;28;20531;-79
2023/07/09 00:07:16;;;;;;;1.40;1.30;;;22.30;94.30;;;;;;5075148;28;20449;-79
2023/07/09 00:09:42;;;;;;;3.13;1.70;;;22.30;94.30;;;;;;5075041;28;20483;-79
2023/07/09 00:12:15;;;;;;;1.60;1.50;;;22.30;94.50;;;;;;5074979;28;20447;-79
2023/07/09 00:14:42;;;;;;;3.13;1.60;;;22.30;94.30;;;;;;5074994;28;20428;-79
2023/07/09 00:17:11;;;;;;;2.77;1.90;;;22.30;94.50;;;;;;5074901;28;20448;-79
2023/07/09 00:19:38;;;;;;;2.70;2.03;;;22.30;94.70;;;;;;5074774;28;20495;-79
2023/07/09 00:22:16;;;;;;;1.87;1.77;;;22.30;94.50;;;;;;5074745;28;20448;-79
2023/07/09 00:24:44;;;;;;;2.10;1.90;;;22.30;94.10;;;;;;5075460;28;20505;-79
2023/07/09 00:27:11;;;;;;;1.40;1.30;;;22.30;94.20;;;;;;5074617;28;20484;-79
2023/07/09 00:29:39;;;;;;;1.37;1.27;;;22.30;94.30;;;;;;5073821;28;20488;-79
2023/07/09 00:32:11;;;;;;;5.23;2.00;;;22.30;94.30;;;;;;5074296;28;20455;-79
2023/07/09 00:34:38;;;;;;;2.93;2.17;;;22.30;94.50;;;;;;5074604;28;20436;-79
2023/07/09 00:37:10;;;;;;;5.70;1.27;;;22.30;94.50;;;;;;5074502;28;20536;-79
2023/07/09 00:39:36;;;;;;;3.33;1.50;;;22.30;95.00;;;;;;5074442;28;20460;-79
2023/07/09 00:42:04;;;;;;;4.90;1.73;;;22.30;94.90;;;;;;5074036;28;20444;-79
2023/07/09 00:44:33;;;;;;;2.23;2.03;;;22.30;95.00;;;;;;5074363;28;20452;-79
2023/07/09 00:47:27;;;;;;;2.50;1.87;;;22.30;95.20;;;;;;5074266;28;20197;-79
2023/07/09 00:50:03;;;;;;;2.17;1.70;;;22.20;95.30;;;;;;5060287;28;20472;-79
2023/07/09 00:52:35;;;;;;;6.10;2.10;;;22.20;95.20;;;;;;5074271;28;20425;-79
2023/07/09 00:55:07;;;;;;;1.53;1.43;;;22.10;95.40;;;;;;5074198;28;20429;-79
2023/07/09 00:57:37;;;;;;;2.00;1.30;;;22.10;95.60;;;;;;5074145;28;20432;-79
2023/07/09 01:00:09;;;;;;;1.73;1.60;;;22.10;95.70;;;;;;5074059;28;20522;-79
2023/07/09 01:02:38;;;;;;;4.03;1.43;;;22.00;95.70;;;;;;5073946;28;20564;-79
2023/07/09 01:05:06;;;;;;;2.10;1.77;;;22.00;95.90;;;;;;5074022;28;20443;-79
2023/07/09 01:07:34;;;;;;;1.20;1.10;;;21.90;96.20;;;;;;5073627;28;20498;-79
2023/07/09 01:10:01;;;;;;;2.50;1.70;;;21.90;96.30;;;;;;5073492;28;20563;-79
2023/07/09 01:12:27;;;;;;;1.50;1.40;;;21.80;96.40;;;;;;5073823;28;20452;-79
2023/07/09 01:14:58;;;;;;;1.80;1.67;;;21.80;96.50;;;;;;5073527;28;20944;-79
2023/07/09 01:17:27;;;;;;;2.80;2.00;;;21.80;96.70;;;;;;5073770;28;20471;-79
2023/07/09 01:19:56;;;;;;;2.53;1.70;;;21.70;96.90;;;;;;5073683;28;20464;-79
2023/07/09 01:22:25;;;;;;;2.20;1.73;;;21.70;97.10;;;;;;5073630;28;20444;-79
2023/07/09 01:24:55;;;;;;;1.53;1.40;;;21.60;97.40;;;;;;5073409;28;20944;-79
2023/07/09 01:27:26;;;;;;;2.70;2.07;;;21.60;97.50;;;;;;5073708;28;20428;-79
2023/07/09 01:29:54;;;;;;;2.63;1.57;;;21.60;97.50;;;;;;5073146;28;20537;-79
2023/07/09 01:32:22;;;;;;;2.07;1.87;;;21.60;97.30;;;;;;5073279;28;20444;-79
2023/07/09 01:34:55;;;;;;;2.00;1.80;;;21.60;97.40;;;;;;5073623;28;20455;-79
2023/07/09 01:37:25;;;;;;;4.70;1.43;;;21.60;97.80;;;;;;5073583;28;20433;-79
2023/07/09 01:39:54;;;;;;;1.63;1.53;;;21.60;97.70;;;;;;5072973;28;20461;-79
2023/07/09 01:42:22;;;;;;;2.53;2.13;;;21.60;98.00;;;;;;5073185;28;20448;-79
2023/07/09 01:44:50;;;;;;;2.80;1.70;;;21.60;97.90;;;;;;5073487;28;20455;-79
2023/07/09 01:47:17;;;;;;;1.57;1.47;;;21.60;97.80;;;;;;5073398;28;20866;-79
2023/07/09 01:49:46;;;;;;;1.57;1.43;;;21.60;97.80;;;;;;5073348;28;20471;-79
2023/07/09 01:52:16;;;;;;;2.37;2.03;;;21.60;98.00;;;;;;5073367;28;20875;-79
2023/07/09 01:54:49;;;;;;;2.13;1.87;;;21.50;98.20;;;;;;5073333;28;20441;-79
2023/07/09 01:57:19;;;;;;;4.80;1.77;;;21.50;98.20;;;;;;5073327;28;20432;-79
2023/07/09 01:59:46;;;;;;;1.93;1.40;;;21.50;98.40;;;;;;5072898;28;20893;-79
2023/07/09 02:02:18;;;;;;;1.83;1.53;;;21.50;98.60;;;;;;5073246;28;20444;-79
2023/07/09 02:04:49;;;;;;;2.50;1.47;;;21.40;98.80;;;;;;5073199;28;20465;-79
2023/07/09 02:07:16;;;;;;;3.13;1.37;;;21.40;98.90;;;;;;5073183;28;20455;-79
2023/07/09 02:09:45;;;;;;;1.40;1.30;;;21.40;99.20;;;;;;5073119;28;20464;-79
2023/07/09 02:12:13;;;;;;;2.37;1.40;;;21.30;99.30;;;;;;5073134;28;20455;-79
2023/07/09 02:14:41;;;;;;;2.20;2.00;;;21.30;99.40;;;;;;5073116;28;20444;-79
2023/07/09 02:17:09;;;;;;;1.53;1.43;;;21.30;99.70;;;;;;5073115;28;20452;-79
2023/07/09 02:19:36;;;;;;;2.30;1.30;;;21.30;99.90;;;;;;5073024;28;20469;-79
2023/07/09 02:22:03;;;;;;;2.10;1.50;;;21.20;99.90;;;;;;5072801;28;20440;-79
2023/07/09 02:24:30;;;;;;;2.17;1.30;;;21.20;99.90;;;;;;5072678;28;20476;-79
2023/07/09 02:27:00;;;;;;;3.27;2.27;;;21.10;99.90;;;;;;5073006;28;20448;-79
2023/07/09 02:29:28;;;;;;;4.00;2.20;;;21.10;99.90;;;;;;5072685;28;20477;-79
2023/07/09 02:31:57;;;;;;;2.43;1.80;;;21.20;99.90;;;;;;5072984;28;20817;-79
2023/07/09 02:34:25;;;;;;;3.20;2.07;;;21.10;99.90;;;;;;5072916;28;20449;-76
2023/07/09 02:36:53;;;;;;;2.90;1.67;;;21.10;99.90;;;;;;5072913;28;20448;-77
2023/07/09 02:39:20;;;;;;;1.83;1.67;;;21.00;99.90;;;;;;5072574;28;20460;-77
2023/07/09 02:41:47;;;;;;;4.57;1.87;;;21.00;99.90;;;;;;5072555;28;20471;-77
2023/07/09 02:44:16;;;;;;;8.00;1.70;;;21.00;99.90;;;;;;5073054;28;20476;-77
2023/07/09 02:46:43;;;;;;;3.43;1.73;;;20.90;99.90;;;;;;5072865;28;20440;-77
2023/07/09 02:49:12;;;;;;;2.70;1.83;;;20.90;99.90;;;;;;5072711;28;20522;-77
2023/07/09 02:51:39;;;;;;;3.77;1.37;;;20.90;99.90;;;;;;5073615;28;20813;-77
2023/07/09 02:54:07;;;;;;;2.80;1.80;;;20.90;99.90;;;;;;5076486;28;20440;-77
2023/07/09 02:56:34;;;;;;;5.43;2.00;;;20.80;99.90;;;;;;5076125;28;20955;-77
2023/07/09 02:59:01;;;;;;;4.37;2.13;;;20.80;99.90;;;;;;5076351;28;20460;-77
2023/07/09 03:01:29;;;;;;;1.43;1.23;;;20.80;99.90;;;;;;5076362;28;20470;-77
2023/07/09 03:03:57;;;;;;;3.37;1.83;;;20.80;99.90;;;;;;5076214;28;20487;-77
2023/07/09 03:06:25;;;;;;;2.60;1.53;;;20.80;99.90;;;;;;5075911;28;20452;-77
2023/07/09 03:08:52;;;;;;;1.80;1.70;;;20.80;99.90;;;;;;5076146;28;20825;-77
2023/07/09 03:11:20;;;;;;;2.63;1.97;;;20.70;99.90;;;;;;5076208;28;20448;-77
2023/07/09 03:13:48;;;;;;;2.27;1.80;;;20.70;99.90;;;;;;5076126;28;20444;-77
2023/07/09 03:16:16;;;;;;;4.13;2.07;;;20.70;99.90;;;;;;5076110;28;20441;-76
2023/07/09 03:18:45;;;;;;;2.10;1.70;;;20.60;99.90;;;;;;5075974;28;20452;-76
2023/07/09 03:21:11;;;;;;;2.33;2.13;;;20.60;99.90;;;;;;5076046;28;20448;-76
2023/07/09 03:23:38;;;;;;;3.13;1.97;;;20.60;99.90;;;;;;5075898;28;20491;-76
2023/07/09 03:26:05;;;;;;;2.63;1.97;;;20.60;99.90;;;;;;5075613;28;20936;-76
2023/07/09 03:28:33;;;;;;;1.80;1.63;;;20.60;99.90;;;;;;5075626;28;20480;-76
2023/07/09 03:30:59;;;;;;;2.50;1.50;;;20.60;99.90;;;;;;5075833;28;20467;-76
2023/07/09 03:33:26;;;;;;;2.80;2.10;;;20.60;99.90;;;;;;5075476;28;20766;-76
2023/07/09 03:35:55;;;;;;;5.00;2.40;;;20.50;99.90;;;;;;5075745;28;20444;-76
2023/07/09 03:38:22;;;;;;;3.60;2.40;;;20.60;99.90;;;;;;5075712;28;20444;-76
2023/07/09 03:40:51;;;;;;;3.80;2.13;;;20.60;99.90;;;;;;5075625;28;20448;-76
2023/07/09 03:43:18;;;;;;;3.40;1.80;;;20.60;99.90;;;;;;5075552;28;20487;-76
2023/07/09 03:45:46;;;;;;;2.33;1.70;;;20.60;99.90;;;;;;5075547;28;20444;-76
2023/07/09 03:48:13;;;;;;;2.53;2.20;;;20.60;99.90;;;;;;5075519;28;20459;-76
2023/07/09 03:50:41;;;;;;;2.60;2.10;;;20.60;99.90;;;;;;5075389;28;20479;-76
2023/07/09 03:53:09;;;;;;;6.40;2.53;;;20.60;99.90;;;;;;5075410;28;20448;-76
2023/07/09 03:55:37;;;;;;;2.40;2.00;;;20.70;99.90;;;;;;5075117;28;20429;-76
2023/07/09 03:58:04;;;;;;;8.20;2.63;;;20.80;99.90;;;;;;5075462;28;20452;-77
2023/07/09 04:00:32;;;;;;;2.37;2.17;;;20.80;99.90;;;;;;5075225;28;20465;-77
2023/07/09 04:02:59;;;;;;;1.77;1.67;;;20.80;99.90;;;;;;5074623;28;20444;-76
2023/07/09 04:05:27;;;;;;;1.67;1.43;;;20.90;99.90;;;;;;5075053;28;20479;-76
2023/07/09 04:07:54;;;;;;;1.67;1.57;;;20.90;99.90;;;;;;5075135;28;20448;-76
2023/07/09 04:10:22;;;;;;;2.30;2.10;;;20.90;99.90;;;;;;5075012;28;20466;-76
2023/07/09 04:12:48;;;;;;;2.60;1.70;;;20.90;99.90;;;;;;5075022;28;20441;-77
2023/07/09 04:15:15;;;;;;;3.20;2.00;;;20.90;99.90;;;;;;5074999;28;20436;-77
2023/07/09 04:17:42;;;;;;;3.47;2.30;;;20.90;99.90;;;;;;5074601;28;20447;-77
2023/07/09 04:20:10;;;;;;;3.50;2.57;;;20.90;99.90;;;;;;5074792;28;20469;-77
2023/07/09 04:22:38;;;;;;;2.07;1.87;;;20.90;99.90;;;;;;5074875;28;20458;-77
2023/07/09 04:25:09;;;;;;;3.70;2.27;;;20.90;99.90;;;;;;5074699;28;20472;-77
2023/07/09 04:27:37;;;;;;;1.73;1.57;;;20.90;99.90;;;;;;5074794;28;20512;-77
2023/07/09 04:30:05;;;;;;;2.93;1.60;;;21.00;99.90;;;;;;5074222;28;20480;-76
2023/07/09 04:32:32;;;;;;;2.73;2.20;;;21.10;99.90;;;;;;5074244;28;20502;-77
2023/07/09 04:34:59;;;;;;;6.13;2.40;;;21.10;99.90;;;;;;5074601;28;20455;-77
2023/07/09 04:37:26;;;;;;;1.87;1.77;;;21.20;99.90;;;;;;5074539;28;20449;-77
2023/07/09 04:39:52;;;;;;;4.10;2.17;;;21.30;99.90;;;;;;5074415;28;20467;-76
2023/07/09 04:42:19;;;;;;;2.10;2.00;;;21.40;99.90;;;;;;5074405;28;20460;-77
2023/07/09 04:44:47;;;;;;;2.93;2.50;;;21.40;99.90;;;;;;5074328;28;20483;-76
2023/07/09 04:47:14;;;;;;;1.73;1.60;;;21.50;99.90;;;;;;5074328;28;20440;-76
2023/07/09 04:49:41;;;;;;;3.80;2.30;;;21.50;99.90;;;;;;5074195;28;20472;-76
2023/07/09 04:52:10;;;;;;;2.47;2.00;;;21.60;99.90;;;;;;5074238;28;20479;-77
2023/07/09 04:54:38;;;;;;;3.23;1.90;;;21.60;99.90;;;;;;5074208;28;20448;-77
2023/07/09 04:57:06;;;;;;;2.23;2.03;;;21.60;99.90;;;;;;5074155;28;20458;-76
2023/07/09 04:59:33;;;;;;;5.70;2.20;;;21.60;99.90;;;;;;5073703;28;20467;-76
2023/07/09 05:02:01;;;;;;;3.43;2.07;;;21.70;99.90;;;;;;5073981;28;20440;-76
2023/07/09 05:04:28;;;;;;;2.47;2.00;;;21.80;99.90;;;;;;5073945;28;20480;-77
2023/07/09 05:06:54;;;;;;;3.87;2.43;;;21.90;99.90;;;;;;5073656;28;20444;-77
2023/07/09 05:09:23;;;;;;;2.00;1.60;;;22.00;99.90;;;;;;5073865;28;20467;-77
2023/07/09 05:11:50;;;;;;;1.67;1.57;;;22.10;99.90;;;;;;5073898;28;20440;-78
2023/07/09 05:14:17;;;;;;;2.73;1.80;;;22.10;99.90;;;;;;5073862;28;20443;-79
2023/07/09 05:16:45;;;;;;;3.13;2.00;;;22.10;99.90;;;;;;5073814;28;20444;-79
2023/07/09 05:19:13;;;;;;;5.07;2.73;;;22.30;99.90;;;;;;5073655;28;20468;-79
2023/07/09 05:21:40;;;;;;;2.30;2.20;;;22.30;99.90;;;;;;5073737;28;20448;-79
2023/07/09 05:24:07;;;;;;;2.00;1.90;;;22.30;99.90;;;;;;5073325;28;20482;-79
2023/07/09 05:26:34;;;;;;;2.60;1.70;;;22.40;99.90;;;;;;5073335;28;20967;-79
2023/07/09 05:29:01;;;;;;;2.50;1.73;;;22.40;99.90;;;;;;5073090;28;20488;-79
2023/07/09 05:31:27;;;;;;;2.90;2.03;;;22.40;99.90;;;;;;5073604;28;20452;-79
2023/07/09 05:33:54;;;;;;;2.17;1.77;;;22.40;99.90;;;;;;5073704;28;20441;-79
2023/07/09 05:36:22;;;;;;;3.53;3.17;;;22.40;99.90;;;;;;5073498;28;20456;-79
2023/07/09 05:38:50;;;;;;;2.10;1.90;;;22.30;99.90;;;;;;5073475;28;20468;-79
2023/07/09 05:41:17;;;;;;;4.13;1.70;;;22.40;99.90;;;;;;5073446;28;20444;-79
2023/07/09 05:43:44;;;;;;;2.60;1.40;;;22.50;99.90;;;;;;5073399;28;20452;-79
2023/07/09 05:46:11;;;;;;;2.70;2.20;;;22.50;99.90;;;;;;5073458;28;20448;-79
2023/07/09 05:48:38;;;;;;;2.90;2.20;;;22.60;99.90;;;;;;5072984;28;20444;-79
2023/07/09 05:51:05;;;;;;;3.20;2.30;;;22.70;99.90;;;;;;5073407;28;20205;-79
2023/07/09 05:53:33;;;;;;;2.63;2.30;;;22.70;99.90;;;;;;5073034;28;20202;-78
2023/07/09 05:56:00;;;;;;;1.80;1.70;;;22.80;99.90;;;;;;5073045;28;20665;-79
2023/07/09 05:58:27;;;;;;;2.43;1.80;;;22.90;99.90;;;;;;5072900;28;20967;-79
2023/07/09 06:00:56;;;;;;;2.50;2.20;;;23.10;99.90;;;;;;5073313;28;20206;-79
2023/07/09 06:03:24;;;;;;;1.83;1.70;;;23.20;99.90;;;;;;5073235;28;20201;-79
2023/07/09 06:05:51;;;;;;;3.27;2.07;;;23.30;99.90;;;;;;5073195;28;20476;-79
2023/07/09 06:08:18;;;;;;;2.67;2.37;;;23.40;99.90;;;;;;5073218;28;20242;-79
2023/07/09 06:10:54;;;;;;;3.55;2.15;;;23.50;99.90;;;;;;5073108;28;20221;-79
2023/07/09 06:13:21;;;;;;;1.80;1.70;;;23.70;99.90;;;;;;5073180;28;20194;-79
2023/07/09 06:15:48;;;;;;;2.10;1.73;;;23.90;99.90;;;;;;5073172;28;20198;-79
2023/07/09 06:18:15;;;;;;;2.80;1.95;;;24.00;99.90;;;;;;5072889;28;20554;-79
2023/07/09 06:20:42;;;;;;;2.45;1.42;;;24.10;99.90;;;;;;5072748;28;20225;-79
2023/07/09 06:23:08;;;;;;;1.67;1.58;;;24.30;99.90;;;;;;5073048;28;20202;-79
2023/07/09 06:25:35;;;;;;;4.90;2.45;;;24.50;99.90;;;;;;5073002;28;20255;-79
2023/07/09 06:28:04;;;;;;;1.73;1.60;;;24.60;99.90;;;;;;5076041;28;20194;-79
2023/07/09 06:30:30;;;;;;;1.88;1.67;;;24.80;99.90;;;;;;5076966;28;20226;-79
2023/07/09 06:32:57;;;;;;;3.22;2.40;;;25.00;99.60;;;;;;5076941;28;20202;-79
2023/07/09 06:35:24;;;;;;;1.70;1.60;;;25.20;99.10;;;;;;5076867;28;20195;-79
2023/07/09 06:37:50;;;;;;;1.92;1.75;;;25.40;98.90;;;;;;5076823;28;20293;-79
2023/07/09 06:40:17;;;;;;;2.17;1.92;;;25.70;99.10;;;;;;5076712;28;20308;-79
2023/07/09 06:42:44;;;;;;;1.70;1.30;;;26.00;98.50;;;;;;5076432;28;20681;-79
2023/07/09 06:45:12;;;;;;;1.80;1.60;;;26.20;97.20;;;;;;5076610;28;20222;-79
2023/07/09 06:47:39;;;;;;;2.42;1.85;;;26.40;96.70;;;;;;5076582;28;20198;-79
2023/07/09 06:50:07;;;;;;;1.42;1.33;;;26.70;96.30;;;;;;5076525;28;20226;-79
2023/07/09 06:52:34;;;;;;;1.40;1.30;;;26.80;95.50;;;;;;5076540;28;20197;-79
2023/07/09 06:55:00;;;;;;;1.50;1.40;;;26.90;95.20;;;;;;5076521;28;20209;-79
2023/07/09 06:57:27;;;;;;;2.25;1.80;;;27.00;94.90;;;;;;5076463;28;20569;-79
2023/07/09 06:59:54;;;;;;;1.70;1.30;;;27.20;94.10;;;;;;5076334;28;20225;-79
2023/07/09 07:02:22;;;;;;;2.55;1.38;;;27.30;94.20;;;;;;5076114;28;20660;-79
2023/07/09 07:04:49;;;;;;;1.55;1.45;;;27.40;93.70;;;;;;5076368;28;20213;-79
2023/07/09 07:07:15;;;;;;;2.55;1.33;;;27.50;92.90;;;;;;5076025;28;20576;-79
2023/07/09 07:09:42;;;;;;;2.03;1.42;;;27.60;93.10;;;;;;5076238;28;20312;-79
2023/07/09 07:12:10;;;;;;;1.58;1.30;;;27.80;93.60;;;;;;5076049;28;20692;-79
2023/07/09 07:14:36;;;;;;;1.30;1.20;;;27.70;92.30;;;;;;5075847;28;20665;-79
2023/07/09 07:17:03;;;;;;;1.40;1.30;;;28.00;92.60;;;;;;5075812;28;20740;-79
2023/07/09 07:19:32;;;;;;;1.60;1.30;;;28.20;92.30;;;;;;5076072;28;20309;-80
2023/07/09 07:21:59;;;;;;;1.60;1.50;;;28.50;92.20;;;;;;5076090;28;20210;-80
2023/07/09 07:24:25;;;;;;;1.27;1.15;;;28.70;92.00;;;;;;5075940;28;20213;-80
2023/07/09 07:26:52;;;;;;;1.00;1.00;;;28.70;90.70;;;;;;5075638;28;20202;-80
2023/07/09 07:29:19;;;;;;;1.52;1.42;;;28.80;90.60;;;;;;5075469;28;20236;-79
2023/07/09 07:31:46;;;;;;;1.67;1.58;;;28.90;90.10;;;;;;5075877;28;20200;-80
2023/07/09 07:34:12;;;;;;;1.10;1.00;;;29.00;88.80;;;;;;5075823;28;20242;-80
2023/07/09 07:36:40;;;;;;;1.15;1.10;;;29.10;87.80;;;;;;5075776;28;20212;-79
2023/07/09 07:39:07;;;;;;;1.48;1.42;;;29.30;86.00;;;;;;5074492;28;20226;-80
2023/07/09 07:41:34;;;;;;;1.15;0.95;;;29.60;86.30;;;;;;5075643;28;20204;-80
2023/07/09 07:44:00;;;;;;;1.48;1.38;;;29.60;84.10;;;;;;5075657;28;20211;-80
2023/07/09 07:46:28;;;;;;;1.00;1.00;;;29.60;84.00;;;;;;5075220;28;20226;-80
2023/07/09 07:48:55;;;;;;;1.15;1.10;;;30.10;83.40;;;;;;5075456;28;20316;-80
2023/07/09 07:51:22;;;;;;;0.98;0.90;;;30.30;80.80;;;;;;5075499;28;20234;-80
2023/07/09 07:53:50;;;;;;;2.45;1.15;;;30.60;80.70;;;;;;5075489;28;20202;-80
2023/07/09 07:56:17;;;;;;;1.25;0.95;;;30.80;79.00;;;;;;5075415;28;20198;-80
2023/07/09 07:58:44;;;;;;;1.30;1.20;;;30.80;78.90;;;;;;5075299;28;20210;-80
2023/07/09 08:01:11;;;;;;;2.25;1.00;;;30.90;80.00;;;;;;5075231;28;20211;-80
2023/07/09 08:03:37;;;;;;;1.33;1.23;;;31.10;78.10;;;;;;5075227;28;20207;-80
2023/07/09 08:06:04;;;;;;;1.55;1.45;;;31.40;77.50;;;;;;5075112;28;20225;-80
2023/07/09 08:08:31;;;;;;;1.35;1.25;;;31.60;77.10;;;;;;5074728;28;20697;-80
2023/07/09 08:11:05;;;;;;;1.17;1.08;;;31.70;75.90;;;;;;5075121;28;20197;-80
2023/07/09 08:13:32;;;;;;;1.58;1.30;;;31.90;74.40;;;;;;5075062;28;20214;-80
2023/07/09 08:15:59;;;;;;;1.50;1.40;;;32.10;73.60;;;;;;5074627;28;20231;-80
2023/07/09 08:18:26;;;;;;;1.88;1.45;;;32.40;72.70;;;;;;5074767;28;20204;-80
2023/07/09 08:20:52;;;;;;;2.47;1.10;;;32.70;71.80;;;;;;5074815;28;20237;-80
2023/07/09 08:23:19;;;;;;;1.38;1.10;;;32.80;71.60;;;;;;5074842;28;20205;-80
2023/07/09 08:25:53;;;;;;;1.13;1.00;;;32.80;70.90;;;;;;5074661;28;20218;-80
2023/07/09 08:28:21;;;;;;;1.30;1.10;;;33.00;70.80;;;;;;5074489;28;20234;-80
2023/07/09 08:30:48;;;;;;;1.00;0.90;;;33.30;69.60;;;;;;5074255;28;20229;-80
2023/07/09 08:33:15;;;;;;;1.45;1.35;;;33.50;68.30;;;;;;5074627;28;20228;-80
2023/07/09 08:35:43;;;;;;;1.33;1.20;;;33.80;67.30;;;;;;5074561;28;20620;-80
2023/07/09 08:38:10;;;;;;;1.17;1.08;;;34.10;65.70;;;;;;5074182;28;20676;-80
2023/07/09 08:40:41;;;;;;;1.50;1.38;;;34.10;66.70;;;;;;5074398;28;20225;-80
2023/07/09 08:43:16;;;;;;;1.88;1.77;;;34.30;65.60;;;;;;5074498;28;20565;-80
2023/07/09 08:45:51;;;;;;;1.30;1.20;;;34.30;64.60;;;;;;5074932;28;20223;-80
2023/07/09 08:48:27;;;;;;;1.15;1.05;;;34.20;65.10;;;;;;5074385;28;20195;-80
2023/07/09 08:51:00;;;;;;;4.20;1.70;;;34.00;65.30;;;;;;5074003;28;20190;-80
2023/07/09 08:53:34;;;;;;;1.10;1.00;;;33.90;64.40;;;;;;5074280;28;20190;-80
2023/07/09 08:56:01;;;;;;;1.23;1.13;;;33.80;64.80;;;;;;5073992;28;20186;-80
2023/07/09 08:58:30;;;;;;;2.30;1.10;;;33.70;65.20;;;;;;5074066;28;20293;-80
2023/07/09 09:01:02;;;;;;;1.20;1.10;;;33.60;65.40;;;;;;5074148;28;20572;-81
2023/07/09 09:03:35;;;;;;;2.00;1.15;;;33.40;65.70;;;;;;5074335;28;20189;-81
2023/07/09 09:06:02;;;;;;;1.20;1.10;;;33.40;64.30;;;;;;5074078;28;20257;-82
2023/07/09 09:08:39;;;;;;;0.90;0.90;;;33.50;63.40;;;;;;5073660;28;20639;-81
2023/07/09 09:11:13;;;;;;;1.33;1.23;;;33.60;63.80;;;;;;5073971;28;20186;-81
2023/07/09 09:13:40;;;;;;;1.98;1.20;;;33.70;62.30;;;;;;5073937;28;20190;-81
2023/07/09 09:16:23;;;;;;;1.27;1.17;;;33.80;62.80;;;;;;5073531;28;20658;-80
2023/07/09 09:18:51;;;;;;;1.52;1.08;;;33.90;61.40;;;;;;5073838;28;20222;-81
2023/07/09 09:21:24;;;;;;;0.95;0.88;;;33.80;61.30;;;;;;5073784;28;20251;-82
2023/07/09 09:23:53;;;;;;;1.25;1.08;;;33.60;60.80;;;;;;5073815;28;20234;-81
2023/07/09 09:26:33;;;;;;;1.60;1.20;;;33.30;60.30;;;;;;5073965;28;20222;-81
2023/07/09 09:29:00;;;;;;;1.65;1.08;;;33.20;61.10;;;;;;5073320;28;20237;-81
2023/07/09 09:31:30;;;;;;;1.73;1.25;;;33.10;62.10;;;;;;5073662;28;20212;-82
2023/07/09 09:33:57;;;;;;;1.20;1.10;;;33.10;62.60;;;;;;5073995;28;20201;-82
2023/07/09 09:36:26;;;;;;;1.00;1.00;;;33.10;62.30;;;;;;5073631;28;20242;-82
2023/07/09 09:38:54;;;;;;;1.33;1.23;;;33.30;63.10;;;;;;5073537;28;20601;-82
2023/07/09 09:41:23;;;;;;;2.38;1.20;;;33.10;61.70;;;;;;5073199;28;20704;-81
2023/07/09 09:43:53;;;;;;;1.35;1.27;;;33.00;61.30;;;;;;5073523;28;20576;-81
2023/07/09 09:46:22;;;;;;;1.17;1.13;;;33.10;62.00;;;;;;5073412;28;20222;-81
2023/07/09 09:48:54;;;;;;;1.67;1.25;;;33.10;61.20;;;;;;5073098;28;20705;-82
2023/07/09 09:51:20;;;;;;;2.33;1.35;;;33.10;62.00;;;;;;5073180;28;20186;-81
2023/07/09 09:53:50;;;;;;;1.88;1.50;;;33.10;61.60;;;;;;5073399;28;20208;-81
2023/07/09 09:56:21;;;;;;;1.35;1.25;;;33.10;60.50;;;;;;5073334;28;20208;-81
2023/07/09 09:58:54;;;;;;;1.83;1.35;;;33.20;60.20;;;;;;5072977;28;20626;-82
2023/07/09 10:01:22;;;;;;;1.17;1.08;;;33.40;56.90;;;;;;5072679;28;20197;-80
2023/07/09 10:03:56;;;;;;;1.55;1.45;;;33.60;56.80;;;;;;5073309;28;20244;-81
2023/07/09 10:06:34;;;;;;;1.27;1.17;;;33.90;56.60;;;;;;5073227;28;20206;-80
2023/07/09 10:09:07;;;;;;;0.95;0.88;;;33.80;57.00;;;;;;5072952;28;20713;-80
2023/07/09 10:11:45;;;;;;;1.25;0.95;;;33.80;57.50;;;;;;5073237;28;20190;-80
2023/07/09 10:14:25;;;;;;;3.15;1.25;;;33.70;57.80;;;;;;5073254;28;20224;-79
2023/07/09 10:16:58;;;;;;;1.15;1.13;;;33.70;57.00;;;;;;5072924;28;20189;-80
2023/07/09 10:19:35;;;;;;;1.35;1.05;;;33.70;57.10;;;;;;5073106;28;20274;-79
2023/07/09 10:22:07;;;;;;;2.55;1.35;;;33.70;55.70;;;;;;5073174;28;20193;-80
2023/07/09 10:24:45;;;;;;;0.88;0.88;;;33.70;54.60;;;;;;5073176;28;20203;-79
2023/07/09 10:27:16;;;;;;;1.63;1.40;;;33.70;55.40;;;;;;5072682;28;20607;-80
2023/07/09 10:29:59;;;;;;;1.50;1.40;;;33.70;55.50;;;;;;5072652;28;20238;-80
2023/07/09 10:32:39;;;;;;;1.27;1.13;;;33.70;54.90;;;;;;5073051;28;20192;-80
2023/07/09 10:35:15;;;;;;;1.27;1.17;;;33.80;55.80;;;;;;5073076;28;20190;-79
2023/07/09 10:38:01;;;;;;;1.02;0.90;;;33.80;55.40;;;;;;5073007;28;20556;-80
2023/07/09 10:40:34;;;;;;;1.02;1.00;;;33.80;55.20;;;;;;5072929;28;20220;-79
2023/07/09 10:43:04;;;;;;;1.35;1.25;;;33.80;53.80;;;;;;5072989;28;20197;-80
2023/07/09 10:45:34;;;;;;;1.05;1.05;;;33.70;54.40;;;;;;5072581;28;20646;-81
2023/07/09 10:48:07;;;;;;;1.10;1.10;;;33.70;54.40;;;;;;5072909;28;20212;-81
2023/07/09 10:50:38;;;;;;;1.10;1.10;;;33.70;54.10;;;;;;5072910;28;20594;-81
2023/07/09 10:53:12;;;;;;;1.17;0.70;;;33.80;54.00;;;;;;5072877;28;20189;-83
2023/07/09 10:55:48;;;;;;;1.73;1.35;;;33.90;53.40;;;;;;5072847;28;20182;-81
2023/07/09 10:58:25;;;;;;;1.55;1.13;;;34.00;53.50;;;;;;5072948;28;20186;-82
2023/07/09 11:00:53;;;;;;;0.73;0.73;;;34.00;53.40;;;;;;5072778;28;20192;-82
2023/07/09 11:03:34;;;;;;;1.42;1.05;;;34.10;52.40;;;;;;5072766;28;20558;-81
2023/07/09 11:06:04;;;;;;;1.30;1.05;;;34.30;52.40;;;;;;5072673;28;20573;-81
2023/07/09 11:08:36;;;;;;;3.55;1.10;;;34.40;50.60;;;;;;5072622;28;20213;-81
2023/07/09 11:11:07;;;;;;;1.75;1.20;;;34.90;50.80;;;;;;5072653;28;20191;-82
2023/07/09 11:13:40;;;;;;;1.27;1.20;;;35.10;50.40;;;;;;5074857;28;20192;-81
2023/07/09 11:16:08;;;;;;;1.40;1.10;;;35.20;50.30;;;;;;5076491;28;20194;-81
2023/07/09 11:18:36;;;;;;;3.45;1.25;;;35.00;49.90;;;;;;5076059;28;20214;-82
2023/07/09 11:21:07;;;;;;;2.17;1.20;;;34.80;50.30;;;;;;5075779;28;20573;-82
2023/07/09 11:23:44;;;;;;;0.98;0.90;;;34.40;50.00;;;;;;5075758;28;20203;-82
2023/07/09 11:26:13;;;;;;;1.00;1.00;;;34.10;50.40;;;;;;5076496;28;20209;-81
2023/07/09 11:28:47;;;;;;;1.13;0.80;;;33.90;51.10;;;;;;5075378;28;20717;-81
2023/07/09 11:31:21;;;;;;;1.00;1.00;;;33.90;52.40;;;;;;5075646;28;20186;-82
2023/07/09 11:33:49;;;;;;;1.55;1.20;;;33.90;52.70;;;;;;5075571;28;20581;-82
2023/07/09 11:36:27;;;;;;;1.60;1.50;;;33.80;50.30;;;;;;5076394;28;20205;-82
2023/07/09 11:38:54;;;;;;;3.83;0.93;;;33.70;51.50;;;;;;5075757;28;20230;-81
2023/07/09 11:41:40;;;;;;;1.65;1.10;;;33.70;49.70;;;;;;5075711;28;20251;-82
2023/07/09 11:44:16;;;;;;;1.08;0.98;;;33.70;51.30;;;;;;5075437;28;20190;-81
2023/07/09 11:46:55;;;;;;;1.20;0.90;;;33.70;52.70;;;;;;5075632;28;20219;-81
2023/07/09 11:49:26;;;;;;;5.20;1.25;;;33.70;53.40;;;;;;5075875;28;20290;-82
2023/07/09 11:52:00;;;;;;;1.40;1.30;;;33.70;53.20;;;;;;5075610;28;20197;-83
2023/07/09 11:54:26;;;;;;;1.10;0.90;;;33.70;51.40;;;;;;5075494;28;20185;-81
2023/07/09 11:56:57;;;;;;;0.90;0.88;;;33.60;52.00;;;;;;5075417;28;20224;-82
2023/07/09 11:59:24;;;;;;;1.40;1.10;;;33.50;50.30;;;;;;5075044;28;20731;-81
2023/07/09 12:01:54;;;;;;;1.65;0.82;;;33.50;51.10;;;;;;5075328;28;20200;-81
2023/07/09 12:04:35;;;;;;;1.48;1.00;;;33.50;51.40;;;;;;5075326;28;20204;-82
2023/07/09 12:07:06;;;;;;;1.42;1.20;;;33.40;51.00;;;;;;5075995;28;20220;-81
2023/07/09 12:09:38;;;;;;;1.30;1.20;;;33.50;51.60;;;;;;5075981;28;20231;-81
2023/07/09 12:12:05;;;;;;;0.90;0.90;;;33.50;51.70;;;;;;5074885;28;20658;-81
2023/07/09 12:14:32;;;;;;;1.00;0.90;;;33.50;50.80;;;;;;5075115;28;20204;-82
2023/07/09 12:16:59;;;;;;;1.35;1.20;;;33.50;52.40;;;;;;5075010;28;20207;-81
2023/07/09 12:19:31;;;;;;;2.45;0.95;;;33.50;52.70;;;;;;5074892;28;20236;-81
2023/07/09 12:22:00;;;;;;;1.42;1.10;;;33.50;51.80;;;;;;5075007;28;20290;-82
2023/07/09 12:24:31;;;;;;;0.90;0.90;;;33.50;51.00;;;;;;5074211;28;20205;-83
2023/07/09 12:27:00;;;;;;;1.42;1.02;;;33.40;49.50;;;;;;5074543;28;20211;-82
2023/07/09 12:29:28;;;;;;;2.95;1.13;;;33.40;48.80;;;;;;5074360;28;20244;-81
2023/07/09 12:31:57;;;;;;;0.93;0.93;;;33.30;49.10;;;;;;5074446;28;20737;-82
2023/07/09 12:34:25;;;;;;;1.13;0.90;;;33.20;48.30;;;;;;5074737;28;20207;-81
2023/07/09 12:36:54;;;;;;;4.25;1.20;;;33.20;49.30;;;;;;5074655;28;20206;-81
2023/07/09 12:39:25;;;;;;;1.63;1.10;;;33.10;48.20;;;;;;5074552;28;20232;-81
2023/07/09 12:41:56;;;;;;;1.23;1.05;;;33.10;48.70;;;;;;5074599;28;20194;-81
2023/07/09 12:44:25;;;;;;;1.80;1.30;;;33.00;49.10;;;;;;5074563;28;20193;-82
2023/07/09 12:46:54;;;;;;;1.27;0.90;;;33.10;48.30;;;;;;5074397;28;20230;-81
2023/07/09 12:49:26;;;;;;;1.20;1.10;;;33.00;48.70;;;;;;5074005;28;20585;-81
2023/07/09 12:51:55;;;;;;;1.20;1.10;;;32.90;48.80;;;;;;5074481;28;20285;-81
2023/07/09 12:54:22;;;;;;;1.60;1.50;;;32.90;47.60;;;;;;5074309;28;20229;-82
2023/07/09 12:56:52;;;;;;;1.20;1.10;;;32.90;48.10;;;;;;5074236;28;20286;-81
2023/07/09 12:59:22;;;;;;;1.20;1.15;;;32.90;49.10;;;;;;5074167;28;20250;-82